createdAt,value
2019-01-27T00:02:22.889Z,4.40
2019-01-27T00:04:51.932Z,4.50
2019-01-27T00:07:21.097Z,4.50
2019-01-27T00:09:50.128Z,4.50
2019-01-27T00:12:19.543Z,4.50
2019-01-27T00:14:48.803Z,4.50
2019-01-27T00:17:17.942Z,4.50
2019-01-27T00:19:47.218Z,4.50
2019-01-27T00:22:18.171Z,4.50
2019-01-27T00:24:47.832Z,4.50
2019-01-27T00:27:31.044Z,4.50
2019-01-27T00:30:00.645Z,4.50
2019-01-27T00:32:29.648Z,4.50
2019-01-27T00:34:59.056Z,4.60
2019-01-27T00:37:28.145Z,4.50
2019-01-27T00:39:57.465Z,4.50
2019-01-27T00:42:26.630Z,4.50
2019-01-27T00:44:56.420Z,4.50
2019-01-27T00:47:25.564Z,4.50
2019-01-27T00:49:54.441Z,4.50
2019-01-27T00:52:25.083Z,4.60
2019-01-27T00:54:54.074Z,4.60
2019-01-27T00:57:23.249Z,4.60
2019-01-27T00:59:55.542Z,4.60
2019-01-27T01:02:24.878Z,4.60
2019-01-27T01:04:53.941Z,4.60
2019-01-27T01:07:23.100Z,4.60
2019-01-27T01:09:52.274Z,4.60
2019-01-27T01:12:21.330Z,4.60
2019-01-27T01:14:50.576Z,4.70
2019-01-27T01:17:19.680Z,4.60
2019-01-27T01:19:48.897Z,4.60
2019-01-27T01:22:18.675Z,4.60
2019-01-27T01:24:47.526Z,4.60
2019-01-27T01:27:17.324Z,4.60
2019-01-27T01:29:46.683Z,4.60
2019-01-27T01:32:15.757Z,4.60
2019-01-27T01:34:44.903Z,4.50
2019-01-27T01:37:14.008Z,4.50
2019-01-27T01:39:43.312Z,4.60
2019-01-27T01:42:12.440Z,4.60
2019-01-27T01:44:41.600Z,4.60
2019-01-27T01:47:12.315Z,4.60
2019-01-27T01:49:43.253Z,4.60
2019-01-27T01:52:12.395Z,4.60
2019-01-27T01:54:41.618Z,4.70
2019-01-27T01:57:10.495Z,4.70
2019-01-27T01:59:40.524Z,4.70
2019-01-27T02:02:10.197Z,4.70
2019-01-27T02:04:39.444Z,4.70
2019-01-27T02:07:08.625Z,4.70
2019-01-27T02:09:37.631Z,4.70
2019-01-27T02:12:06.671Z,4.70
2019-01-27T02:14:35.505Z,4.70
2019-01-27T02:17:04.690Z,4.70
2019-01-27T02:19:33.928Z,4.70
2019-01-27T02:22:03.265Z,4.70
2019-01-27T02:24:32.562Z,4.70
2019-01-27T02:27:01.496Z,4.80
2019-01-27T02:29:30.651Z,4.70
2019-01-27T02:31:59.999Z,4.70
2019-01-27T02:34:29.273Z,4.70
2019-01-27T02:36:58.630Z,4.80
2019-01-27T02:39:28.693Z,4.80
2019-01-27T02:41:57.887Z,4.80
2019-01-27T02:44:26.919Z,4.80
2019-01-27T02:46:56.045Z,4.80
2019-01-27T02:49:25.507Z,4.80
2019-01-27T02:51:54.510Z,4.80
2019-01-27T02:54:23.632Z,4.80
2019-01-27T02:56:52.789Z,4.80
2019-01-27T02:59:22.142Z,4.80
2019-01-27T03:01:51.267Z,4.80
2019-01-27T03:04:20.189Z,4.90
2019-01-27T03:07:12.516Z,4.90
2019-01-27T03:09:45.107Z,4.90
2019-01-27T03:12:14.164Z,4.90
2019-01-27T03:14:43.375Z,5.00
2019-01-27T03:17:14.685Z,5.00
2019-01-27T03:19:43.806Z,5.10
2019-01-27T03:22:12.881Z,5.10
2019-01-27T03:24:42.297Z,5.10
2019-01-27T03:27:11.501Z,5.10
2019-01-27T03:29:40.483Z,5.20
2019-01-27T03:32:09.436Z,5.20
2019-01-27T03:34:39.107Z,5.20
2019-01-27T03:37:08.041Z,5.20
2019-01-27T03:39:37.091Z,5.20
2019-01-27T03:42:06.169Z,5.20
2019-01-27T03:44:35.271Z,5.20
2019-01-27T03:47:05.343Z,5.10
2019-01-27T03:49:34.427Z,5.00
2019-01-27T03:52:03.800Z,4.90
2019-01-27T03:54:32.954Z,4.80
2019-01-27T03:57:02.254Z,4.80
2019-01-27T03:59:31.367Z,4.80
2019-01-27T04:02:00.503Z,4.70
2019-01-27T04:04:29.350Z,4.70
2019-01-27T04:06:58.507Z,4.70
2019-01-27T04:09:27.956Z,4.70
2019-01-27T04:11:56.875Z,4.70
2019-01-27T04:14:25.951Z,4.70
2019-01-27T04:16:55.004Z,4.60
2019-01-27T04:19:24.221Z,4.60
2019-01-27T04:21:53.384Z,4.60
2019-01-27T04:24:22.156Z,4.60
2019-01-27T04:26:51.343Z,4.50
2019-01-27T04:29:20.196Z,4.50
2019-01-27T04:31:49.438Z,4.60
2019-01-27T04:34:18.889Z,4.50
2019-01-27T04:36:48.114Z,4.50
2019-01-27T04:39:17.046Z,4.50
2019-01-27T04:41:46.513Z,4.50
2019-01-27T04:44:15.422Z,4.50
2019-01-27T04:46:44.277Z,4.60
2019-01-27T04:49:13.262Z,4.60
2019-01-27T04:51:42.438Z,4.60
2019-01-27T04:54:11.365Z,4.60
2019-01-27T04:56:40.309Z,4.60
2019-01-27T04:59:09.381Z,4.60
2019-01-27T05:01:38.483Z,4.60
2019-01-27T05:04:26.156Z,4.60
2019-01-27T05:06:55.374Z,4.60
2019-01-27T05:09:24.446Z,4.70
2019-01-27T05:11:53.527Z,4.60
2019-01-27T05:14:22.425Z,4.60
2019-01-27T05:16:52.742Z,4.70
2019-01-27T05:19:21.873Z,4.70
2019-01-27T05:21:50.879Z,4.70
2019-01-27T05:24:19.778Z,4.70
2019-01-27T05:26:50.837Z,4.70
2019-01-27T05:29:20.060Z,4.70
2019-01-27T05:31:49.459Z,4.70
2019-01-27T05:34:18.864Z,4.80
2019-01-27T05:36:47.645Z,4.80
2019-01-27T05:39:16.682Z,4.80
2019-01-27T05:41:46.075Z,4.80
2019-01-27T05:44:15.267Z,4.80
2019-01-27T05:46:44.151Z,4.80
2019-01-27T05:49:13.479Z,4.80
2019-01-27T05:51:42.806Z,4.90
2019-01-27T05:54:11.954Z,4.90
2019-01-27T05:56:41.206Z,4.90
2019-01-27T05:59:10.097Z,4.90
2019-01-27T06:01:39.552Z,4.90
2019-01-27T06:04:08.574Z,4.90
2019-01-27T06:06:38.155Z,4.90
2019-01-27T06:09:08.817Z,4.90
2019-01-27T06:11:37.919Z,4.90
2019-01-27T06:14:07.284Z,4.90
2019-01-27T06:16:36.536Z,4.90
2019-01-27T06:19:05.859Z,5.00
2019-01-27T06:21:34.851Z,4.90
2019-01-27T06:24:04.442Z,5.00
2019-01-27T06:26:33.799Z,5.00
2019-01-27T06:29:02.772Z,4.90
2019-01-27T06:31:31.879Z,5.00
2019-01-27T06:34:10.019Z,5.00
2019-01-27T06:36:39.030Z,5.00
2019-01-27T06:39:10.454Z,5.00
2019-01-27T06:41:39.913Z,5.00
2019-01-27T06:44:08.885Z,5.00
2019-01-27T06:46:37.827Z,5.00
2019-01-27T06:49:07.515Z,5.00
2019-01-27T06:51:37.086Z,5.00
2019-01-27T06:54:06.872Z,5.00
2019-01-27T06:56:36.585Z,5.00
2019-01-27T06:59:24.779Z,5.00
2019-01-27T07:02:02.159Z,5.00
2019-01-27T07:04:38.582Z,5.00
2019-01-27T07:07:29.911Z,5.10
2019-01-27T07:10:17.273Z,5.10
2019-01-27T07:13:00.204Z,5.10
2019-01-27T07:15:47.395Z,5.10
2019-01-27T07:18:35.395Z,5.10
2019-01-27T07:21:41.694Z,5.10
2019-01-27T07:24:29.959Z,5.10
2019-01-27T07:27:16.875Z,5.10
2019-01-27T07:30:06.499Z,5.10
2019-01-27T07:33:07.457Z,5.10
2019-01-27T07:35:53.963Z,5.10
2019-01-27T07:38:28.818Z,5.20
2019-01-27T07:41:09.275Z,5.20
2019-01-27T07:44:00.308Z,5.30
2019-01-27T07:46:51.298Z,5.30
2019-01-27T07:49:42.361Z,5.30
2019-01-27T07:52:29.424Z,5.30
2019-01-27T07:55:28.412Z,5.30
2019-01-27T07:58:15.764Z,5.30
2019-01-27T08:00:53.574Z,5.40
2019-01-27T08:03:33.744Z,5.40
2019-01-27T08:06:19.702Z,5.40
2019-01-27T08:09:06.791Z,5.40
2019-01-27T08:11:55.100Z,5.50
2019-01-27T08:14:49.790Z,5.50
2019-01-27T08:17:33.250Z,5.50
2019-01-27T08:20:24.264Z,5.50
2019-01-27T08:23:13.803Z,5.60
2019-01-27T08:26:02.318Z,5.70
2019-01-27T08:28:39.779Z,5.70
2019-01-27T08:31:34.450Z,5.70
2019-01-27T08:34:27.250Z,5.70
2019-01-27T08:37:15.992Z,5.70
2019-01-27T08:39:59.027Z,5.70
2019-01-27T08:42:50.644Z,5.80
2019-01-27T08:46:00.800Z,5.80
2019-01-27T08:48:30.066Z,5.80
2019-01-27T08:50:59.375Z,5.80
2019-01-27T08:53:28.504Z,5.80
2019-01-27T08:55:58.579Z,5.80
2019-01-27T08:58:27.899Z,5.70
2019-01-27T09:01:21.966Z,5.80
2019-01-27T09:04:16.844Z,5.90
2019-01-27T09:07:23.217Z,5.90
2019-01-27T09:10:10.285Z,6.00
2019-01-27T09:12:58.187Z,6.00
2019-01-27T09:15:45.282Z,6.00
2019-01-27T09:18:28.459Z,6.00
2019-01-27T09:21:15.748Z,6.10
2019-01-27T09:24:07.194Z,6.10
2019-01-27T09:26:45.768Z,6.10
2019-01-27T09:29:20.288Z,6.10
2019-01-27T09:32:10.621Z,6.20
2019-01-27T09:34:55.689Z,6.20
2019-01-27T09:37:46.221Z,6.20
2019-01-27T09:40:32.689Z,6.10
2019-01-27T09:43:19.532Z,6.00
2019-01-27T09:46:10.253Z,5.90
2019-01-27T09:49:01.120Z,5.90
2019-01-27T09:51:49.183Z,5.90
2019-01-27T09:54:36.747Z,5.90
2019-01-27T09:57:34.355Z,5.90
2019-01-27T10:00:17.268Z,6.00
2019-01-27T10:03:10.924Z,6.00
2019-01-27T10:06:08.255Z,6.00
2019-01-27T10:08:52.364Z,6.10
2019-01-27T10:11:45.231Z,6.20
2019-01-27T10:14:21.049Z,6.20
2019-01-27T10:17:09.400Z,6.20
2019-01-27T10:20:03.689Z,6.20
2019-01-27T10:23:07.408Z,6.30
2019-01-27T10:25:55.764Z,6.40
2019-01-27T10:28:39.914Z,6.60
2019-01-27T10:31:27.588Z,6.60
2019-01-27T10:34:18.736Z,6.70
2019-01-27T10:36:55.365Z,6.70
2019-01-27T10:39:31.157Z,6.80
2019-01-27T10:42:17.840Z,6.80
2019-01-27T10:45:01.530Z,6.80
2019-01-27T10:47:59.077Z,6.80
2019-01-27T10:50:46.920Z,6.80
2019-01-27T10:53:40.752Z,6.80
2019-01-27T10:56:19.738Z,6.70
2019-01-27T10:59:03.484Z,6.80
2019-01-27T11:01:57.827Z,6.80
2019-01-27T11:04:44.909Z,6.80
2019-01-27T11:07:24.806Z,6.80
2019-01-27T11:10:21.397Z,6.80
2019-01-27T11:13:17.812Z,6.90
2019-01-27T11:16:24.344Z,7.00
2019-01-27T11:19:01.523Z,7.00
2019-01-27T11:22:02.599Z,7.00
2019-01-27T11:24:49.838Z,7.10
2019-01-27T11:27:45.631Z,7.30
2019-01-27T11:30:51.913Z,7.40
2019-01-27T11:33:40.166Z,7.40
2019-01-27T11:36:38.278Z,7.40
2019-01-27T11:39:51.903Z,7.50
2019-01-27T11:42:39.614Z,7.50
2019-01-27T11:45:17.775Z,7.60
2019-01-27T11:48:07.506Z,7.50
2019-01-27T11:51:17.894Z,7.50
2019-01-27T11:53:55.439Z,7.50
2019-01-27T11:56:24.955Z,7.50
2019-01-27T11:59:12.276Z,7.40
2019-01-27T12:01:42.733Z,7.30
2019-01-27T12:04:13.309Z,7.40
2019-01-27T12:06:42.670Z,7.40
2019-01-27T12:09:12.942Z,7.60
2019-01-27T12:11:47.378Z,7.60
2019-01-27T12:14:18.502Z,7.60
2019-01-27T12:16:49.843Z,7.60
2019-01-27T12:19:23.849Z,7.60
2019-01-27T12:21:53.011Z,7.50
2019-01-27T12:24:25.611Z,7.30
2019-01-27T12:26:59.457Z,7.20
2019-01-27T12:29:32.077Z,7.20
2019-01-27T12:32:01.699Z,7.10
2019-01-27T12:34:34.524Z,6.90
2019-01-27T12:37:04.545Z,6.60
2019-01-27T12:39:43.280Z,6.40
2019-01-27T12:42:15.215Z,6.20
2019-01-27T12:44:46.580Z,6.10
2019-01-27T12:47:18.786Z,6.00
2019-01-27T12:49:53.815Z,5.90
2019-01-27T12:52:24.756Z,5.90
2019-01-27T12:54:54.533Z,5.80
2019-01-27T12:57:26.421Z,5.90
2019-01-27T12:59:55.516Z,5.80
2019-01-27T13:02:26.060Z,5.90
2019-01-27T13:04:55.772Z,5.90
2019-01-27T13:07:27.082Z,5.90
2019-01-27T13:10:25.117Z,5.90
2019-01-27T13:12:54.517Z,5.90
2019-01-27T13:15:24.543Z,5.90
2019-01-27T13:17:53.804Z,5.90
2019-01-27T13:20:23.550Z,5.80
2019-01-27T13:22:54.537Z,5.90
2019-01-27T13:25:24.392Z,5.90
2019-01-27T13:27:53.485Z,5.90
2019-01-27T13:30:26.458Z,5.90
2019-01-27T13:32:56.290Z,6.00
2019-01-27T13:35:25.670Z,6.00
2019-01-27T13:37:55.331Z,6.10
2019-01-27T13:40:24.719Z,6.10
2019-01-27T13:42:54.195Z,6.20
2019-01-27T13:45:27.856Z,6.20
2019-01-27T13:47:58.828Z,6.20
2019-01-27T13:50:28.171Z,6.30
2019-01-27T13:52:57.108Z,6.30
2019-01-27T13:55:28.482Z,6.30
2019-01-27T13:57:59.961Z,6.30
2019-01-27T14:00:31.748Z,6.40
2019-01-27T14:03:01.286Z,6.50
2019-01-27T14:05:30.851Z,6.60
2019-01-27T14:08:02.765Z,6.70
2019-01-27T14:10:32.234Z,6.80
2019-01-27T14:13:01.441Z,6.80
2019-01-27T14:15:33.576Z,6.80
2019-01-27T14:18:03.061Z,6.80
2019-01-27T14:20:32.073Z,6.90
2019-01-27T14:23:01.995Z,6.90
2019-01-27T14:25:31.577Z,6.80
2019-01-27T14:28:00.619Z,6.80
2019-01-27T14:30:32.689Z,6.80
2019-01-27T14:33:02.232Z,6.80
2019-01-27T14:35:31.581Z,6.70
2019-01-27T14:38:00.867Z,6.70
2019-01-27T14:40:30.437Z,6.70
2019-01-27T14:43:00.886Z,6.70
2019-01-27T14:45:31.090Z,6.70
2019-01-27T14:48:00.977Z,6.70
2019-01-27T14:50:33.194Z,6.70
2019-01-27T14:53:05.568Z,6.80
2019-01-27T14:55:35.128Z,6.70
2019-01-27T14:58:07.405Z,6.80
2019-01-27T15:00:41.057Z,6.80
2019-01-27T15:03:16.186Z,6.80
2019-01-27T15:05:46.631Z,6.90
2019-01-27T15:08:18.768Z,6.90
2019-01-27T15:10:48.176Z,6.90
2019-01-27T15:13:20.778Z,6.90
2019-01-27T15:15:50.271Z,6.90
2019-01-27T15:18:20.015Z,7.00
2019-01-27T15:20:56.528Z,7.00
2019-01-27T15:23:33.198Z,7.00
2019-01-27T15:26:15.471Z,7.00
2019-01-27T15:35:04.826Z,7.00
2019-01-27T15:40:47.966Z,6.80
2019-01-27T15:43:18.286Z,6.60
2019-01-27T15:45:48.076Z,6.50
2019-01-27T15:48:19.957Z,6.50
2019-01-27T15:50:49.489Z,6.40
2019-01-27T15:53:19.057Z,6.40
2019-01-27T15:55:48.352Z,6.30
2019-01-27T15:58:18.950Z,6.30
2019-01-27T16:00:48.231Z,6.20
2019-01-27T16:03:17.303Z,6.20
2019-01-27T16:05:46.667Z,6.30
2019-01-27T16:08:15.947Z,6.20
2019-01-27T16:10:46.622Z,6.30
2019-01-27T16:13:16.018Z,6.20
2019-01-27T16:15:47.653Z,6.20
2019-01-27T16:18:17.185Z,6.20
2019-01-27T16:20:46.249Z,6.20
2019-01-27T16:23:38.381Z,6.20
2019-01-27T16:26:07.761Z,6.30
2019-01-27T16:28:37.463Z,6.30
2019-01-27T16:31:24.861Z,6.20
2019-01-27T16:34:16.432Z,6.20
2019-01-27T16:36:46.959Z,6.10
2019-01-27T16:39:16.104Z,6.20
2019-01-27T16:41:45.579Z,6.20
2019-01-27T16:44:16.175Z,6.20
2019-01-27T16:46:45.462Z,6.20
2019-01-27T16:49:14.916Z,6.10
2019-01-27T16:51:49.099Z,6.10
2019-01-27T16:54:17.538Z,6.10
2019-01-27T16:56:46.862Z,6.10
2019-01-27T16:59:17.858Z,6.10
2019-01-27T17:01:49.699Z,6.10
2019-01-27T17:04:19.300Z,6.20
2019-01-27T17:06:48.637Z,6.20
2019-01-27T17:09:19.455Z,6.20
2019-01-27T17:11:49.031Z,6.30
2019-01-27T17:14:21.595Z,6.30
2019-01-27T17:16:51.051Z,6.30
2019-01-27T17:19:20.108Z,6.30
2019-01-27T17:21:50.048Z,6.20
2019-01-27T17:24:21.244Z,6.30
2019-01-27T17:26:51.521Z,6.20
2019-01-27T17:29:21.083Z,6.20
2019-01-27T17:31:50.269Z,6.30
2019-01-27T17:34:22.510Z,6.20
2019-01-27T17:36:52.370Z,6.20
2019-01-27T17:39:22.616Z,6.00
2019-01-27T17:41:52.083Z,6.00
2019-01-27T17:44:21.620Z,5.90
2019-01-27T17:47:05.083Z,5.80
2019-01-27T17:49:34.024Z,5.80
2019-01-27T17:52:04.090Z,5.70
2019-01-27T17:54:37.000Z,5.70
2019-01-27T17:57:20.698Z,5.70
2019-01-27T18:00:11.898Z,5.70
2019-01-27T18:02:57.005Z,5.70
2019-01-27T18:05:36.995Z,5.60
2019-01-27T18:08:32.174Z,5.50
2019-01-27T18:11:13.690Z,5.50
2019-01-27T18:13:51.480Z,5.40
2019-01-27T18:16:20.357Z,5.40
2019-01-27T18:18:49.669Z,5.40
2019-01-27T18:21:19.553Z,5.30
2019-01-27T18:23:48.717Z,5.30
2019-01-27T18:26:19.490Z,5.20
2019-01-27T18:28:51.802Z,5.20
2019-01-27T18:31:20.403Z,5.20
2019-01-27T18:33:50.337Z,5.20
2019-01-27T18:36:20.012Z,5.30
2019-01-27T18:38:57.717Z,5.30
2019-01-27T18:41:28.212Z,5.30
2019-01-27T18:43:58.891Z,5.20
2019-01-27T18:46:28.691Z,5.20
2019-01-27T18:48:57.942Z,5.20
2019-01-27T18:51:27.516Z,5.20
2019-01-27T18:54:27.812Z,5.20
2019-01-27T18:57:14.726Z,5.20
2019-01-27T19:00:02.950Z,5.10
2019-01-27T19:02:39.542Z,5.00
2019-01-27T19:05:37.809Z,5.00
2019-01-27T19:08:19.543Z,5.00
2019-01-27T19:11:11.047Z,4.90
2019-01-27T19:13:59.170Z,5.00
2019-01-27T19:16:47.994Z,5.00
2019-01-27T19:19:35.716Z,5.10
2019-01-27T19:22:22.167Z,5.20
2019-01-27T19:25:22.764Z,5.20
2019-01-27T19:28:07.691Z,5.30
2019-01-27T19:31:03.078Z,5.30
2019-01-27T19:33:49.935Z,5.30
2019-01-27T19:36:37.472Z,5.10
2019-01-27T19:39:25.729Z,5.10
2019-01-27T19:42:06.601Z,5.00
2019-01-27T19:44:44.779Z,4.90
2019-01-27T19:47:39.533Z,4.80
2019-01-27T19:50:29.422Z,4.70
2019-01-27T19:53:17.309Z,4.70
2019-01-27T19:56:05.182Z,4.60
2019-01-27T19:58:52.191Z,4.60
2019-01-27T20:01:44.321Z,4.50
2019-01-27T20:04:48.648Z,4.50
2019-01-27T20:07:51.669Z,4.40
2019-01-27T20:10:39.872Z,4.40
2019-01-27T20:13:27.049Z,4.40
2019-01-27T20:16:34.712Z,4.40
2019-01-27T20:19:41.959Z,4.30
2019-01-27T20:22:49.052Z,4.20
2019-01-27T20:25:44.363Z,4.20
2019-01-27T20:28:51.405Z,4.10
2019-01-27T20:31:58.893Z,4.00
2019-01-27T20:34:47.641Z,4.10
2019-01-27T20:37:55.825Z,4.10
2019-01-27T20:40:46.868Z,4.10
2019-01-27T20:43:36.733Z,4.00
2019-01-27T20:46:17.544Z,3.90
2019-01-27T20:49:04.714Z,3.80
2019-01-27T20:51:54.044Z,3.70
2019-01-27T20:54:40.528Z,3.70
2019-01-27T20:57:36.702Z,3.70
2019-01-27T21:00:33.943Z,3.60
2019-01-27T21:03:20.831Z,3.50
2019-01-27T21:06:01.034Z,3.40
2019-01-27T21:08:53.859Z,3.30
2019-01-27T21:11:54.685Z,3.30
2019-01-27T21:14:48.631Z,3.30
2019-01-27T21:17:45.968Z,3.20
2019-01-27T21:20:18.986Z,3.00
2019-01-27T21:22:51.038Z,3.00
2019-01-27T21:25:20.119Z,2.90
2019-01-27T21:27:49.724Z,2.80
2019-01-27T21:30:19.073Z,2.80
2019-01-27T21:32:48.905Z,2.70
2019-01-27T21:35:18.019Z,2.70
2019-01-27T21:37:50.391Z,2.60
2019-01-27T21:40:29.273Z,2.60
2019-01-27T21:42:58.273Z,2.50
2019-01-27T21:45:27.754Z,2.50
2019-01-27T21:47:56.850Z,2.40
2019-01-27T21:50:26.276Z,2.30
2019-01-27T21:52:55.480Z,2.30
2019-01-27T21:55:24.744Z,2.30
2019-01-27T21:57:55.200Z,2.30
2019-01-27T22:00:24.462Z,2.40
2019-01-27T22:02:53.557Z,2.40
2019-01-27T22:05:22.650Z,2.40
2019-01-27T22:07:52.065Z,2.40
2019-01-27T22:10:21.548Z,2.40
2019-01-27T22:12:51.366Z,2.40
2019-01-27T22:15:23.212Z,2.40
2019-01-27T22:17:52.337Z,2.40
2019-01-27T22:20:21.958Z,2.40
2019-01-27T22:22:51.707Z,2.40
2019-01-27T22:25:21.194Z,2.30
2019-01-27T22:27:51.248Z,2.30
2019-01-27T22:30:21.921Z,2.30
2019-01-27T22:32:51.357Z,2.30
2019-01-27T22:35:21.490Z,2.20
2019-01-27T22:37:50.955Z,2.30
2019-01-27T22:40:20.458Z,2.20
2019-01-27T22:42:50.394Z,2.20
2019-01-27T22:45:19.488Z,2.30
2019-01-27T22:47:49.674Z,2.30
2019-01-27T22:50:19.522Z,2.30
2019-01-27T22:52:49.305Z,2.30
2019-01-27T22:55:19.500Z,2.30
2019-01-27T22:57:48.611Z,2.30
2019-01-27T23:01:14.901Z,2.20
2019-01-27T23:06:55.770Z,2.30
2019-01-27T23:09:24.783Z,2.20
2019-01-27T23:15:20.487Z,2.20
2019-01-27T23:21:10.515Z,2.20
2019-01-27T23:24:17.749Z,2.20
2019-01-27T23:27:05.846Z,2.20
2019-01-27T23:29:46.954Z,2.10
2019-01-27T23:32:27.505Z,2.10
2019-01-27T23:35:08.085Z,2.10
2019-01-27T23:37:48.646Z,2.10
2019-01-27T23:40:29.472Z,2.10
2019-01-27T23:43:09.993Z,2.20
2019-01-27T23:45:50.827Z,2.30
2019-01-27T23:51:12.325Z,2.30
2019-01-27T23:53:41.585Z,2.30
2019-01-27T23:56:10.688Z,2.30
2019-01-27T23:58:41.952Z,2.30
